Hlavní strana
METAR-TAF:

METAR-TAF

Letiště :

Dothan, Alabama, Spojené státy americké

zeměpisná šířka: 31-19-17N, zeměpisná délka: 085-26-59W, výška: 122 m

Aktuální stav počasí

Zpráva byla vytvořena před 36 minutami, v 18:53 UTC
Severozápadní vítr 5 kt
Teplota 14°C
Vlhkost vzduchu 67%
Tlak 1012 hPa
Viditelnost: 16.1 km
Skoro jasno ve výšce 2300 ft

METAR: KDHN 141853Z 31005KT 10SM FEW023 14/08 A2988 RMK AO2 SLP117 T01440078

Čas: 13:29 (19:29 UTC)

Předpověď počasí

Zpráva byla vytvořena před 2 hodinami a 9 minutami, v 17:20 UTC
Předpověď platná od 14 v 18 UTC do 15 v 18 UTC
Západoseverozápadní vítr 10 kt
Viditelnost: 10 km
Polojasno ve výšce 2000 ft
Od 15 v 0800 UTC
Severní vítr kt
Viditelnost: 0.8 km
Zataženo ve výšce 200 ft
mlha
Od 15 v 1500 UTC
Jihojihovýchodní vítr 7 kt
Viditelnost: 10 km
Polojasno ve výšce 1500 ft

TAF: KDHN 141720Z 1418/1518 29010KT P6SM SCT020 FM150800 00000KT 1/2SM FG OVC002 FM151500 15007KT P6SM SCT015

Stav a předpovědi počasí z více než 4 000 letišť (zprávy METAR a TAF).

Červené a žluté tečky na mapě představují dostupné meteorologické stanice.

Když kurzor umístíte na tečku, zobrazí se název stanice.

Pak kliknutím zobrazíte stav a předpověď počasí.

Chcete-li změnit mapu, kliknutím na zelené tlačítko se znaménkem +mapu přiblížíte, kliknutím na zelené tlačítko se znaménkem – mapu oddálíte a kliknutím na zelené šipky přejdete na sousední mapy.


METAR-TAF: